sensor_id;sensor_type;location;lat;lon;timestamp;pressure;altitude;pressure_sealevel;temperature;humidity
48156;BME280;35568;48.104;11.782;2023-10-13T00:01:59;95595.05;;;18.70;33.24
48156;BME280;35568;48.104;11.782;2023-10-13T00:04:26;95590.83;;;18.65;33.24
48156;BME280;35568;48.104;11.782;2023-10-13T00:06:55;95590.92;;;18.50;33.48
48156;BME280;35568;48.104;11.782;2023-10-13T00:09:22;95587.79;;;18.41;33.63
48156;BME280;35568;48.104;11.782;2023-10-13T00:11:49;95590.69;;;18.31;33.55
48156;BME280;35568;48.104;11.782;2023-10-13T00:14:16;95592.96;;;18.28;33.62
48156;BME280;35568;48.104;11.782;2023-10-13T00:16:43;95593.42;;;18.17;33.61
48156;BME280;35568;48.104;11.782;2023-10-13T00:19:10;95590.57;;;18.13;33.57
48156;BME280;35568;48.104;11.782;2023-10-13T00:21:37;95589.63;;;18.09;33.41
48156;BME280;35568;48.104;11.782;2023-10-13T00:24:05;95588.87;;;18.05;33.50
48156;BME280;35568;48.104;11.782;2023-10-13T00:26:32;95588.34;;;17.91;33.75
48156;BME280;35568;48.104;11.782;2023-10-13T00:29:00;95590.89;;;18.22;33.65
48156;BME280;35568;48.104;11.782;2023-10-13T00:31:28;95592.24;;;17.83;33.54
48156;BME280;35568;48.104;11.782;2023-10-13T00:33:54;95588.88;;;17.74;33.62
48156;BME280;35568;48.104;11.782;2023-10-13T00:36:21;95585.55;;;17.78;33.55
48156;BME280;35568;48.104;11.782;2023-10-13T00:38:48;95587.71;;;17.83;33.66
48156;BME280;35568;48.104;11.782;2023-10-13T00:41:15;95590.93;;;18.08;33.38
48156;BME280;35568;48.104;11.782;2023-10-13T00:43:46;95586.77;;;17.94;33.36
48156;BME280;35568;48.104;11.782;2023-10-13T00:46:13;95588.90;;;18.16;33.61
48156;BME280;35568;48.104;11.782;2023-10-13T00:48:41;95586.24;;;17.84;33.49
48156;BME280;35568;48.104;11.782;2023-10-13T00:51:10;95587.11;;;17.80;33.61
48156;BME280;35568;48.104;11.782;2023-10-13T00:53:39;95588.21;;;17.79;33.48
48156;BME280;35568;48.104;11.782;2023-10-13T00:56:07;95588.14;;;17.99;33.58
48156;BME280;35568;48.104;11.782;2023-10-13T00:58:35;95589.02;;;18.03;33.64
48156;BME280;35568;48.104;11.782;2023-10-13T01:01:03;95590.36;;;17.76;33.68
48156;BME280;35568;48.104;11.782;2023-10-13T01:03:30;95591.47;;;18.06;33.53
48156;BME280;35568;48.104;11.782;2023-10-13T01:05:57;95591.20;;;18.07;33.31
48156;BME280;35568;48.104;11.782;2023-10-13T01:08:32;95589.65;;;18.25;33.57
48156;BME280;35568;48.104;11.782;2023-10-13T01:10:59;95590.48;;;18.04;33.36
48156;BME280;35568;48.104;11.782;2023-10-13T01:13:26;95585.30;;;17.78;33.30
48156;BME280;35568;48.104;11.782;2023-10-13T01:15:53;95581.97;;;18.02;33.48
48156;BME280;35568;48.104;11.782;2023-10-13T01:18:20;95579.24;;;17.91;33.43
48156;BME280;35568;48.104;11.782;2023-10-13T01:20:47;95580.48;;;17.57;33.47
48156;BME280;35568;48.104;11.782;2023-10-13T01:23:14;95577.65;;;18.04;33.62
48156;BME280;35568;48.104;11.782;2023-10-13T01:25:41;95573.69;;;17.64;33.71
48156;BME280;35568;48.104;11.782;2023-10-13T01:28:07;95570.08;;;17.56;33.64
48156;BME280;35568;48.104;11.782;2023-10-13T01:30:34;95566.72;;;17.21;33.72
48156;BME280;35568;48.104;11.782;2023-10-13T01:33:02;95569.22;;;17.63;33.71
48156;BME280;35568;48.104;11.782;2023-10-13T01:35:29;95569.09;;;17.57;33.79
48156;BME280;35568;48.104;11.782;2023-10-13T01:37:56;95568.09;;;17.43;33.79
48156;BME280;35568;48.104;11.782;2023-10-13T01:40:23;95571.16;;;17.35;33.61
48156;BME280;35568;48.104;11.782;2023-10-13T01:42:50;95566.81;;;17.46;33.57
48156;BME280;35568;48.104;11.782;2023-10-13T01:45:17;95567.72;;;17.51;33.44
48156;BME280;35568;48.104;11.782;2023-10-13T01:47:44;95566.38;;;17.46;33.35
48156;BME280;35568;48.104;11.782;2023-10-13T01:50:10;95564.69;;;17.36;33.45
48156;BME280;35568;48.104;11.782;2023-10-13T01:52:37;95566.84;;;17.29;33.53
48156;BME280;35568;48.104;11.782;2023-10-13T01:55:05;95566.14;;;17.04;33.45
48156;BME280;35568;48.104;11.782;2023-10-13T01:57:32;95565.99;;;17.01;33.46
48156;BME280;35568;48.104;11.782;2023-10-13T01:59:58;95565.55;;;17.26;33.35
48156;BME280;35568;48.104;11.782;2023-10-13T02:02:25;95568.74;;;17.53;33.28
48156;BME280;35568;48.104;11.782;2023-10-13T02:04:52;95571.52;;;17.44;33.07
48156;BME280;35568;48.104;11.782;2023-10-13T02:07:19;95574.83;;;17.42;33.21
48156;BME280;35568;48.104;11.782;2023-10-13T02:09:46;95573.89;;;17.26;33.63
48156;BME280;35568;48.104;11.782;2023-10-13T02:12:12;95572.60;;;17.46;33.89
48156;BME280;35568;48.104;11.782;2023-10-13T02:14:40;95570.48;;;17.36;33.68
48156;BME280;35568;48.104;11.782;2023-10-13T02:17:06;95575.11;;;17.24;34.19
48156;BME280;35568;48.104;11.782;2023-10-13T02:19:33;95574.43;;;16.89;34.11
48156;BME280;35568;48.104;11.782;2023-10-13T02:22:00;95575.32;;;17.22;34.45
48156;BME280;35568;48.104;11.782;2023-10-13T02:24:27;95573.55;;;17.06;34.29
48156;BME280;35568;48.104;11.782;2023-10-13T02:26:54;95572.10;;;17.21;34.52
48156;BME280;35568;48.104;11.782;2023-10-13T02:29:20;95571.83;;;16.88;34.43
48156;BME280;35568;48.104;11.782;2023-10-13T02:31:47;95573.35;;;17.21;34.82
48156;BME280;35568;48.104;11.782;2023-10-13T02:34:15;95572.58;;;17.00;34.75
48156;BME280;35568;48.104;11.782;2023-10-13T02:36:41;95572.81;;;16.88;35.02
48156;BME280;35568;48.104;11.782;2023-10-13T02:39:08;95570.51;;;16.80;34.95
48156;BME280;35568;48.104;11.782;2023-10-13T02:41:35;95570.33;;;16.94;34.90
48156;BME280;35568;48.104;11.782;2023-10-13T02:44:03;95568.96;;;16.80;34.88
48156;BME280;35568;48.104;11.782;2023-10-13T02:46:31;95565.17;;;16.60;34.95
48156;BME280;35568;48.104;11.782;2023-10-13T02:48:59;95565.59;;;16.97;35.19
48156;BME280;35568;48.104;11.782;2023-10-13T02:51:25;95564.78;;;15.39;34.88
48156;BME280;35568;48.104;11.782;2023-10-13T02:53:52;95564.55;;;17.02;34.06
48156;BME280;35568;48.104;11.782;2023-10-13T02:56:19;95563.78;;;17.28;34.59
48156;BME280;35568;48.104;11.782;2023-10-13T02:58:47;95559.05;;;16.93;34.59
48156;BME280;35568;48.104;11.782;2023-10-13T03:03:01;95559.49;;;16.63;34.75
48156;BME280;35568;48.104;11.782;2023-10-13T03:05:27;95559.69;;;16.77;34.73
48156;BME280;35568;48.104;11.782;2023-10-13T03:07:54;95559.61;;;16.67;35.02
48156;BME280;35568;48.104;11.782;2023-10-13T03:10:21;95561.02;;;16.45;35.29
48156;BME280;35568;48.104;11.782;2023-10-13T03:12:48;95559.66;;;16.29;35.33
48156;BME280;35568;48.104;11.782;2023-10-13T03:15:15;95560.28;;;16.43;35.51
48156;BME280;35568;48.104;11.782;2023-10-13T03:17:42;95557.34;;;16.37;35.78
48156;BME280;35568;48.104;11.782;2023-10-13T03:20:10;95555.41;;;16.40;35.86
48156;BME280;35568;48.104;11.782;2023-10-13T03:22:37;95553.47;;;16.29;35.95
48156;BME280;35568;48.104;11.782;2023-10-13T03:25:04;95555.16;;;16.22;35.97
48156;BME280;35568;48.104;11.782;2023-10-13T03:27:31;95554.91;;;16.12;36.10
48156;BME280;35568;48.104;11.782;2023-10-13T03:29:58;95555.46;;;16.06;36.36
48156;BME280;35568;48.104;11.782;2023-10-13T03:32:25;95557.41;;;15.94;36.51
48156;BME280;35568;48.104;11.782;2023-10-13T03:34:51;95557.55;;;15.85;36.55
48156;BME280;35568;48.104;11.782;2023-10-13T03:37:19;95558.83;;;15.73;36.36
48156;BME280;35568;48.104;11.782;2023-10-13T03:39:47;95557.97;;;15.86;36.50
48156;BME280;35568;48.104;11.782;2023-10-13T03:42:14;95555.86;;;15.72;36.77
48156;BME280;35568;48.104;11.782;2023-10-13T03:44:40;95556.76;;;15.43;37.33
48156;BME280;35568;48.104;11.782;2023-10-13T03:47:07;95555.62;;;15.57;37.28
48156;BME280;35568;48.104;11.782;2023-10-13T03:49:34;95553.34;;;15.45;36.94
48156;BME280;35568;48.104;11.782;2023-10-13T03:52:02;95552.31;;;15.41;36.96
48156;BME280;35568;48.104;11.782;2023-10-13T03:54:29;95553.42;;;15.65;37.20
48156;BME280;35568;48.104;11.782;2023-10-13T03:56:56;95551.46;;;15.02;36.75
48156;BME280;35568;48.104;11.782;2023-10-13T03:59:23;95550.66;;;15.46;36.54
48156;BME280;35568;48.104;11.782;2023-10-13T04:01:50;95548.73;;;15.45;37.15
48156;BME280;35568;48.104;11.782;2023-10-13T04:04:17;95545.44;;;15.03;37.11
48156;BME280;35568;48.104;11.782;2023-10-13T04:06:44;95546.12;;;15.03;37.06
48156;BME280;35568;48.104;11.782;2023-10-13T04:09:13;95550.13;;;15.12;37.10
48156;BME280;35568;48.104;11.782;2023-10-13T04:11:40;95548.22;;;15.36;36.97
48156;BME280;35568;48.104;11.782;2023-10-13T04:14:07;95547.08;;;15.28;37.23
48156;BME280;35568;48.104;11.782;2023-10-13T04:16:34;95548.00;;;14.93;37.33
48156;BME280;35568;48.104;11.782;2023-10-13T04:19:01;95549.20;;;14.79;37.27
48156;BME280;35568;48.104;11.782;2023-10-13T04:21:27;95551.45;;;14.81;37.32
48156;BME280;35568;48.104;11.782;2023-10-13T04:23:54;95551.69;;;15.00;37.49
48156;BME280;35568;48.104;11.782;2023-10-13T04:26:21;95548.64;;;15.02;37.46
48156;BME280;35568;48.104;11.782;2023-10-13T04:28:48;95544.70;;;15.11;37.60
48156;BME280;35568;48.104;11.782;2023-10-13T04:31:16;95544.19;;;14.85;37.55
48156;BME280;35568;48.104;11.782;2023-10-13T04:33:43;95545.00;;;14.80;37.35
48156;BME280;35568;48.104;11.782;2023-10-13T04:36:11;95542.40;;;14.73;37.54
48156;BME280;35568;48.104;11.782;2023-10-13T04:38:38;95544.12;;;14.87;37.75
48156;BME280;35568;48.104;11.782;2023-10-13T04:41:06;95538.15;;;14.59;37.69
48156;BME280;35568;48.104;11.782;2023-10-13T04:43:33;95535.66;;;14.39;37.85
48156;BME280;35568;48.104;11.782;2023-10-13T04:46:00;95531.15;;;14.75;37.72
48156;BME280;35568;48.104;11.782;2023-10-13T04:48:26;95530.78;;;14.64;38.11
48156;BME280;35568;48.104;11.782;2023-10-13T04:50:59;95525.20;;;14.64;37.99
48156;BME280;35568;48.104;11.782;2023-10-13T04:53:27;95529.11;;;14.23;38.27
48156;BME280;35568;48.104;11.782;2023-10-13T04:55:55;95527.49;;;14.46;38.23
48156;BME280;35568;48.104;11.782;2023-10-13T04:58:22;95535.56;;;14.61;38.20
48156;BME280;35568;48.104;11.782;2023-10-13T05:00:49;95530.25;;;14.58;38.40
48156;BME280;35568;48.104;11.782;2023-10-13T05:03:16;95531.62;;;14.56;38.50
48156;BME280;35568;48.104;11.782;2023-10-13T05:05:44;95531.71;;;14.24;38.51
48156;BME280;35568;48.104;11.782;2023-10-13T05:08:11;95529.29;;;14.40;38.65
48156;BME280;35568;48.104;11.782;2023-10-13T05:10:37;95528.55;;;14.46;38.66
48156;BME280;35568;48.104;11.782;2023-10-13T05:13:04;95528.37;;;14.21;38.48
48156;BME280;35568;48.104;11.782;2023-10-13T05:15:31;95529.36;;;14.18;38.64
48156;BME280;35568;48.104;11.782;2023-10-13T05:17:58;95531.90;;;13.99;38.97
48156;BME280;35568;48.104;11.782;2023-10-13T05:20:26;95529.25;;;13.33;38.88
48156;BME280;35568;48.104;11.782;2023-10-13T05:22:54;95529.67;;;14.34;38.40
48156;BME280;35568;48.104;11.782;2023-10-13T05:25:21;95528.85;;;14.18;38.57
48156;BME280;35568;48.104;11.782;2023-10-13T05:27:48;95528.35;;;14.03;38.71
48156;BME280;35568;48.104;11.782;2023-10-13T05:30:15;95530.65;;;13.95;38.95
48156;BME280;35568;48.104;11.782;2023-10-13T05:32:42;95532.84;;;14.07;38.94
48156;BME280;35568;48.104;11.782;2023-10-13T05:35:08;95536.98;;;14.04;39.06
48156;BME280;35568;48.104;11.782;2023-10-13T05:37:36;95537.51;;;14.03;39.12
48156;BME280;35568;48.104;11.782;2023-10-13T05:40:03;95536.69;;;14.02;39.10
48156;BME280;35568;48.104;11.782;2023-10-13T05:42:31;95536.88;;;14.00;38.95
48156;BME280;35568;48.104;11.782;2023-10-13T05:44:58;95537.60;;;14.07;38.96
48156;BME280;35568;48.104;11.782;2023-10-13T05:47:30;95540.74;;;14.14;38.85
48156;BME280;35568;48.104;11.782;2023-10-13T05:49:57;95541.30;;;13.89;38.96
48156;BME280;35568;48.104;11.782;2023-10-13T05:52:24;95545.28;;;14.14;38.90
48156;BME280;35568;48.104;11.782;2023-10-13T05:54:51;95547.66;;;14.17;38.88
48156;BME280;35568;48.104;11.782;2023-10-13T05:57:18;95550.93;;;13.98;38.85
48156;BME280;35568;48.104;11.782;2023-10-13T05:59:45;95551.27;;;13.86;38.65
48156;BME280;35568;48.104;11.782;2023-10-13T06:02:12;95550.80;;;13.95;38.86
48156;BME280;35568;48.104;11.782;2023-10-13T06:04:39;95551.71;;;14.15;38.46
48156;BME280;35568;48.104;11.782;2023-10-13T06:07:07;95551.75;;;14.42;38.25
48156;BME280;35568;48.104;11.782;2023-10-13T06:09:33;95548.17;;;14.39;38.16
48156;BME280;35568;48.104;11.782;2023-10-13T06:12:00;95551.55;;;14.52;37.90
48156;BME280;35568;48.104;11.782;2023-10-13T06:14:27;95553.30;;;14.75;37.69
48156;BME280;35568;48.104;11.782;2023-10-13T06:16:54;95550.58;;;15.08;37.46
48156;BME280;35568;48.104;11.782;2023-10-13T06:19:21;95553.18;;;14.97;37.07
48156;BME280;35568;48.104;11.782;2023-10-13T06:21:48;95553.99;;;15.21;36.69
48156;BME280;35568;48.104;11.782;2023-10-13T06:24:14;95555.48;;;15.36;36.76
48156;BME280;35568;48.104;11.782;2023-10-13T06:26:41;95555.97;;;15.29;36.46
48156;BME280;35568;48.104;11.782;2023-10-13T06:29:08;95554.13;;;15.47;36.23
48156;BME280;35568;48.104;11.782;2023-10-13T06:31:35;95556.64;;;15.35;35.89
48156;BME280;35568;48.104;11.782;2023-10-13T06:34:02;95558.27;;;15.45;35.88
48156;BME280;35568;48.104;11.782;2023-10-13T06:36:28;95558.21;;;15.62;35.59
48156;BME280;35568;48.104;11.782;2023-10-13T06:38:55;95560.00;;;15.63;35.75
48156;BME280;35568;48.104;11.782;2023-10-13T06:41:22;95561.02;;;15.77;35.97
48156;BME280;35568;48.104;11.782;2023-10-13T06:43:49;95558.74;;;15.90;35.39
48156;BME280;35568;48.104;11.782;2023-10-13T06:46:16;95562.73;;;16.01;35.36
48156;BME280;35568;48.104;11.782;2023-10-13T06:48:43;95561.35;;;16.14;35.42
48156;BME280;35568;48.104;11.782;2023-10-13T06:51:10;95562.85;;;16.29;35.34
48156;BME280;35568;48.104;11.782;2023-10-13T06:53:37;95565.63;;;16.46;35.38
48156;BME280;35568;48.104;11.782;2023-10-13T06:56:06;95567.57;;;16.83;35.19
48156;BME280;35568;48.104;11.782;2023-10-13T06:58:33;95564.93;;;16.88;34.38
48156;BME280;35568;48.104;11.782;2023-10-13T07:01:06;95565.77;;;17.72;34.16
48156;BME280;35568;48.104;11.782;2023-10-13T07:03:33;95570.41;;;17.57;33.47
48156;BME280;35568;48.104;11.782;2023-10-13T07:06:00;95571.24;;;17.65;33.18
48156;BME280;35568;48.104;11.782;2023-10-13T07:08:27;95572.41;;;17.79;33.00
48156;BME280;35568;48.104;11.782;2023-10-13T07:10:55;95572.29;;;18.11;32.61
48156;BME280;35568;48.104;11.782;2023-10-13T07:13:23;95573.75;;;18.04;32.13
48156;BME280;35568;48.104;11.782;2023-10-13T07:15:50;95575.95;;;18.47;32.04
48156;BME280;35568;48.104;11.782;2023-10-13T07:18:17;95570.75;;;18.60;31.80
48156;BME280;35568;48.104;11.782;2023-10-13T07:20:45;95566.98;;;19.06;31.46
48156;BME280;35568;48.104;11.782;2023-10-13T07:23:12;95569.38;;;19.34;31.35
48156;BME280;35568;48.104;11.782;2023-10-13T07:25:39;95565.96;;;19.36;30.95
48156;BME280;35568;48.104;11.782;2023-10-13T07:28:07;95566.52;;;19.64;30.79
48156;BME280;35568;48.104;11.782;2023-10-13T07:30:35;95566.41;;;20.06;30.68
48156;BME280;35568;48.104;11.782;2023-10-13T07:33:02;95563.11;;;19.98;30.47
48156;BME280;35568;48.104;11.782;2023-10-13T07:35:29;95561.98;;;20.15;29.92
48156;BME280;35568;48.104;11.782;2023-10-13T07:37:56;95564.41;;;19.96;29.90
48156;BME280;35568;48.104;11.782;2023-10-13T07:40:23;95561.92;;;20.27;29.57
48156;BME280;35568;48.104;11.782;2023-10-13T07:42:50;95563.24;;;21.08;29.34
48156;BME280;35568;48.104;11.782;2023-10-13T07:45:17;95558.86;;;21.14;29.01
48156;BME280;35568;48.104;11.782;2023-10-13T07:47:44;95557.98;;;21.44;28.72
48156;BME280;35568;48.104;11.782;2023-10-13T07:50:11;95561.32;;;21.39;28.40
48156;BME280;35568;48.104;11.782;2023-10-13T07:52:38;95554.41;;;21.99;28.26
48156;BME280;35568;48.104;11.782;2023-10-13T07:55:05;95558.18;;;22.49;27.64
48156;BME280;35568;48.104;11.782;2023-10-13T07:57:32;95556.48;;;22.70;27.71
48156;BME280;35568;48.104;11.782;2023-10-13T07:59:59;95557.31;;;23.32;26.87
48156;BME280;35568;48.104;11.782;2023-10-13T08:02:26;95555.23;;;22.85;26.47
48156;BME280;35568;48.104;11.782;2023-10-13T08:04:52;95554.75;;;23.30;26.05
48156;BME280;35568;48.104;11.782;2023-10-13T08:07:22;95556.00;;;23.16;26.34
48156;BME280;35568;48.104;11.782;2023-10-13T08:09:48;95553.68;;;23.71;25.95
48156;BME280;35568;48.104;11.782;2023-10-13T08:12:15;95550.54;;;23.66;25.70
48156;BME280;35568;48.104;11.782;2023-10-13T08:14:43;95548.67;;;24.28;25.52
48156;BME280;35568;48.104;11.782;2023-10-13T08:17:09;95545.99;;;24.70;25.24
48156;BME280;35568;48.104;11.782;2023-10-13T08:19:37;95542.90;;;24.30;24.86
48156;BME280;35568;48.104;11.782;2023-10-13T08:22:03;95538.56;;;24.94;24.92
48156;BME280;35568;48.104;11.782;2023-10-13T08:24:30;95536.89;;;25.05;24.67
48156;BME280;35568;48.104;11.782;2023-10-13T08:26:58;95540.69;;;25.14;24.27
48156;BME280;35568;48.104;11.782;2023-10-13T08:29:26;95542.20;;;24.92;23.83
48156;BME280;35568;48.104;11.782;2023-10-13T08:31:54;95537.85;;;24.88;23.80
48156;BME280;35568;48.104;11.782;2023-10-13T08:34:22;95540.96;;;25.11;23.44
48156;BME280;35568;48.104;11.782;2023-10-13T08:36:49;95540.58;;;25.15;23.16
48156;BME280;35568;48.104;11.782;2023-10-13T08:39:16;95539.36;;;25.36;22.89
48156;BME280;35568;48.104;11.782;2023-10-13T08:41:45;95540.27;;;25.32;22.34
48156;BME280;35568;48.104;11.782;2023-10-13T08:44:14;95535.22;;;25.82;21.77
48156;BME280;35568;48.104;11.782;2023-10-13T08:46:41;95536.43;;;25.87;21.93
48156;BME280;35568;48.104;11.782;2023-10-13T08:49:08;95536.18;;;26.34;21.86
48156;BME280;35568;48.104;11.782;2023-10-13T08:51:38;95535.41;;;26.92;21.94
48156;BME280;35568;48.104;11.782;2023-10-13T08:54:07;95538.96;;;27.29;21.46
48156;BME280;35568;48.104;11.782;2023-10-13T08:56:34;95540.70;;;27.24;20.99
48156;BME280;35568;48.104;11.782;2023-10-13T08:59:01;95539.21;;;26.77;21.27
48156;BME280;35568;48.104;11.782;2023-10-13T09:01:33;95537.99;;;26.91;21.32
48156;BME280;35568;48.104;11.782;2023-10-13T09:04:01;95538.60;;;26.96;20.89
48156;BME280;35568;48.104;11.782;2023-10-13T09:06:28;95537.92;;;27.15;20.77
48156;BME280;35568;48.104;11.782;2023-10-13T09:09:04;95538.76;;;27.85;20.47
48156;BME280;35568;48.104;11.782;2023-10-13T09:11:34;95534.49;;;27.79;20.45
48156;BME280;35568;48.104;11.782;2023-10-13T09:14:01;95532.35;;;28.00;20.05
48156;BME280;35568;48.104;11.782;2023-10-13T09:16:27;95525.08;;;28.48;19.79
48156;BME280;35568;48.104;11.782;2023-10-13T09:19:01;95524.32;;;28.86;19.68
48156;BME280;35568;48.104;11.782;2023-10-13T09:21:28;95519.82;;;29.36;19.76
48156;BME280;35568;48.104;11.782;2023-10-13T09:23:55;95515.83;;;29.45;19.27
48156;BME280;35568;48.104;11.782;2023-10-13T09:26:22;95516.14;;;29.64;18.64
48156;BME280;35568;48.104;11.782;2023-10-13T09:28:49;95513.63;;;29.93;18.94
48156;BME280;35568;48.104;11.782;2023-10-13T09:31:22;95513.20;;;29.89;19.66
48156;BME280;35568;48.104;11.782;2023-10-13T09:33:49;95515.03;;;30.16;19.59
48156;BME280;35568;48.104;11.782;2023-10-13T09:36:16;95513.40;;;30.79;18.94
48156;BME280;35568;48.104;11.782;2023-10-13T09:38:47;95512.62;;;31.22;18.94
48156;BME280;35568;48.104;11.782;2023-10-13T09:41:15;95507.80;;;30.64;19.51
48156;BME280;35568;48.104;11.782;2023-10-13T09:43:42;95504.76;;;31.15;19.12
48156;BME280;35568;48.104;11.782;2023-10-13T09:46:10;95503.14;;;31.02;19.08
48156;BME280;35568;48.104;11.782;2023-10-13T09:48:44;95500.82;;;31.29;19.05
48156;BME280;35568;48.104;11.782;2023-10-13T09:51:12;95499.64;;;30.94;19.31
48156;BME280;35568;48.104;11.782;2023-10-13T09:53:42;95496.03;;;31.19;19.03
48156;BME280;35568;48.104;11.782;2023-10-13T09:56:18;95498.43;;;31.32;19.16
48156;BME280;35568;48.104;11.782;2023-10-13T09:58:51;95496.78;;;32.01;18.95
48156;BME280;35568;48.104;11.782;2023-10-13T10:01:24;95496.89;;;31.89;18.59
48156;BME280;35568;48.104;11.782;2023-10-13T10:03:54;95493.13;;;31.53;18.16
48156;BME280;35568;48.104;11.782;2023-10-13T10:06:22;95491.34;;;32.07;18.22
48156;BME280;35568;48.104;11.782;2023-10-13T10:08:49;95486.51;;;32.22;17.65
48156;BME280;35568;48.104;11.782;2023-10-13T10:11:29;95484.46;;;32.17;17.73
48156;BME280;35568;48.104;11.782;2023-10-13T10:14:10;95485.29;;;32.46;17.63
48156;BME280;35568;48.104;11.782;2023-10-13T10:16:47;95486.50;;;31.55;17.95
48156;BME280;35568;48.104;11.782;2023-10-13T10:19:17;95484.64;;;31.89;17.60
48156;BME280;35568;48.104;11.782;2023-10-13T10:21:44;95482.54;;;32.72;16.54
48156;BME280;35568;48.104;11.782;2023-10-13T10:24:15;95480.69;;;33.24;16.72
48156;BME280;35568;48.104;11.782;2023-10-13T10:26:50;95483.08;;;33.07;16.84
48156;BME280;35568;48.104;11.782;2023-10-13T10:29:17;95474.10;;;32.76;17.04
48156;BME280;35568;48.104;11.782;2023-10-13T10:31:44;95471.14;;;32.67;17.47
48156;BME280;35568;48.104;11.782;2023-10-13T10:34:12;95472.01;;;32.40;17.86
48156;BME280;35568;48.104;11.782;2023-10-13T10:36:40;95469.73;;;32.44;18.16
48156;BME280;35568;48.104;11.782;2023-10-13T10:39:07;95472.42;;;32.08;18.24
48156;BME280;35568;48.104;11.782;2023-10-13T10:41:34;95468.38;;;31.59;18.50
48156;BME280;35568;48.104;11.782;2023-10-13T10:44:01;95461.27;;;31.75;18.42
48156;BME280;35568;48.104;11.782;2023-10-13T10:46:28;95456.74;;;31.64;18.84
48156;BME280;35568;48.104;11.782;2023-10-13T10:48:56;95453.61;;;32.01;18.38
48156;BME280;35568;48.104;11.782;2023-10-13T10:51:22;95445.99;;;32.21;18.12
48156;BME280;35568;48.104;11.782;2023-10-13T10:53:50;95435.46;;;33.03;18.11
48156;BME280;35568;48.104;11.782;2023-10-13T10:56:19;95435.48;;;33.24;17.81
48156;BME280;35568;48.104;11.782;2023-10-13T10:58:49;95432.62;;;33.04;16.69
48156;BME280;35568;48.104;11.782;2023-10-13T11:01:16;95425.67;;;33.10;17.38
48156;BME280;35568;48.104;11.782;2023-10-13T11:03:53;95421.25;;;33.19;17.19
48156;BME280;35568;48.104;11.782;2023-10-13T11:06:20;95415.19;;;34.05;17.05
48156;BME280;35568;48.104;11.782;2023-10-13T11:08:47;95414.38;;;34.50;16.54
48156;BME280;35568;48.104;11.782;2023-10-13T11:11:15;95407.76;;;34.46;16.15
48156;BME280;35568;48.104;11.782;2023-10-13T11:13:42;95399.45;;;34.72;15.68
48156;BME280;35568;48.104;11.782;2023-10-13T11:16:09;95396.37;;;34.84;15.76
48156;BME280;35568;48.104;11.782;2023-10-13T11:18:36;95395.81;;;34.06;16.11
48156;BME280;35568;48.104;11.782;2023-10-13T11:21:03;95393.69;;;33.80;16.12
48156;BME280;35568;48.104;11.782;2023-10-13T11:23:30;95393.94;;;34.13;16.36
48156;BME280;35568;48.104;11.782;2023-10-13T11:25:57;95389.29;;;34.18;15.88
48156;BME280;35568;48.104;11.782;2023-10-13T11:28:24;95388.06;;;34.30;16.35
48156;BME280;35568;48.104;11.782;2023-10-13T11:30:51;95384.30;;;34.31;16.30
48156;BME280;35568;48.104;11.782;2023-10-13T11:33:18;95381.77;;;34.18;16.25
48156;BME280;35568;48.104;11.782;2023-10-13T11:35:45;95380.54;;;34.18;16.57
48156;BME280;35568;48.104;11.782;2023-10-13T11:38:12;95372.87;;;34.33;16.13
48156;BME280;35568;48.104;11.782;2023-10-13T11:40:39;95366.39;;;35.21;15.58
48156;BME280;35568;48.104;11.782;2023-10-13T11:43:06;95363.94;;;34.70;15.47
48156;BME280;35568;48.104;11.782;2023-10-13T11:45:32;95357.10;;;34.40;15.47
48156;BME280;35568;48.104;11.782;2023-10-13T11:47:59;95355.74;;;33.65;15.77
48156;BME280;35568;48.104;11.782;2023-10-13T11:50:26;95350.49;;;33.57;15.97
48156;BME280;35568;48.104;11.782;2023-10-13T11:52:53;95346.27;;;34.12;15.93
48156;BME280;35568;48.104;11.782;2023-10-13T11:55:19;95341.61;;;34.38;15.66
48156;BME280;35568;48.104;11.782;2023-10-13T11:57:46;95338.94;;;34.77;15.40
48156;BME280;35568;48.104;11.782;2023-10-13T12:00:15;95339.79;;;34.68;15.00
48156;BME280;35568;48.104;11.782;2023-10-13T12:02:42;95331.78;;;34.58;15.07
48156;BME280;35568;48.104;11.782;2023-10-13T12:05:09;95327.77;;;34.41;14.96
48156;BME280;35568;48.104;11.782;2023-10-13T12:07:36;95322.35;;;34.88;15.28
48156;BME280;35568;48.104;11.782;2023-10-13T12:10:03;95321.17;;;35.10;15.00
48156;BME280;35568;48.104;11.782;2023-10-13T12:12:30;95316.34;;;34.74;14.85
48156;BME280;35568;48.104;11.782;2023-10-13T12:14:57;95315.08;;;34.21;15.13
48156;BME280;35568;48.104;11.782;2023-10-13T12:17:26;95311.11;;;33.99;15.19
48156;BME280;35568;48.104;11.782;2023-10-13T12:19:53;95308.38;;;33.68;15.30
48156;BME280;35568;48.104;11.782;2023-10-13T12:22:20;95303.04;;;34.21;15.09
48156;BME280;35568;48.104;11.782;2023-10-13T12:24:47;95298.84;;;34.25;14.96
48156;BME280;35568;48.104;11.782;2023-10-13T12:27:14;95296.05;;;33.95;14.93
48156;BME280;35568;48.104;11.782;2023-10-13T12:29:41;95293.55;;;34.47;14.55
48156;BME280;35568;48.104;11.782;2023-10-13T12:32:07;95291.64;;;34.65;14.70
48156;BME280;35568;48.104;11.782;2023-10-13T12:34:35;95288.34;;;34.42;14.51
48156;BME280;35568;48.104;11.782;2023-10-13T12:37:02;95284.26;;;34.72;14.40
48156;BME280;35568;48.104;11.782;2023-10-13T12:39:29;95283.94;;;34.87;14.00
48156;BME280;35568;48.104;11.782;2023-10-13T12:41:55;95281.06;;;34.75;14.28
48156;BME280;35568;48.104;11.782;2023-10-13T12:44:22;95279.94;;;35.38;13.97
48156;BME280;35568;48.104;11.782;2023-10-13T12:46:49;95276.73;;;34.79;13.83
48156;BME280;35568;48.104;11.782;2023-10-13T12:49:17;95274.50;;;35.17;13.53
48156;BME280;35568;48.104;11.782;2023-10-13T12:51:44;95267.67;;;34.45;13.91
48156;BME280;35568;48.104;11.782;2023-10-13T12:54:10;95261.30;;;34.45;13.91